sensor_id;sensor_type;location;lat;lon;timestamp;P1;durP1;ratioP1;P2;durP2;ratioP2
18780;SDS011;9519;51.890;8.970;2023-07-20T00:03:12;7.13;;;3.70;;
18780;SDS011;9519;51.890;8.970;2023-07-20T00:08:20;11.98;;;4.13;;
18780;SDS011;9519;51.890;8.970;2023-07-20T00:13:22;9.88;;;4.40;;
18780;SDS011;9519;51.890;8.970;2023-07-20T00:18:24;8.90;;;4.80;;
18780;SDS011;9519;51.890;8.970;2023-07-20T00:23:28;7.45;;;3.80;;
18780;SDS011;9519;51.890;8.970;2023-07-20T00:28:30;7.80;;;3.60;;
18780;SDS011;9519;51.890;8.970;2023-07-20T00:33:32;6.20;;;3.70;;
18780;SDS011;9519;51.890;8.970;2023-07-20T00:38:35;5.80;;;3.75;;
18780;SDS011;9519;51.890;8.970;2023-07-20T00:43:38;7.27;;;4.03;;
18780;SDS011;9519;51.890;8.970;2023-07-20T00:48:40;10.13;;;4.17;;
18780;SDS011;9519;51.890;8.970;2023-07-20T00:53:45;7.20;;;3.33;;
18780;SDS011;9519;51.890;8.970;2023-07-20T00:58:47;6.38;;;3.25;;
18780;SDS011;9519;51.890;8.970;2023-07-20T01:03:50;7.03;;;3.60;;
18780;SDS011;9519;51.890;8.970;2023-07-20T01:08:56;6.63;;;3.97;;
18780;SDS011;9519;51.890;8.970;2023-07-20T01:14:08;5.55;;;3.20;;
18780;SDS011;9519;51.890;8.970;2023-07-20T01:19:13;8.90;;;4.07;;
18780;SDS011;9519;51.890;8.970;2023-07-20T01:24:35;6.60;;;3.13;;
18780;SDS011;9519;51.890;8.970;2023-07-20T01:30:03;7.17;;;3.03;;
18780;SDS011;9519;51.890;8.970;2023-07-20T01:35:27;5.63;;;3.40;;
18780;SDS011;9519;51.890;8.970;2023-07-20T01:40:31;7.10;;;3.60;;
18780;SDS011;9519;51.890;8.970;2023-07-20T01:45:34;7.73;;;3.60;;
18780;SDS011;9519;51.890;8.970;2023-07-20T01:50:38;6.25;;;3.30;;
18780;SDS011;9519;51.890;8.970;2023-07-20T01:55:40;5.43;;;3.30;;
18780;SDS011;9519;51.890;8.970;2023-07-20T02:00:42;6.65;;;3.95;;
18780;SDS011;9519;51.890;8.970;2023-07-20T02:05:45;6.97;;;3.83;;
18780;SDS011;9519;51.890;8.970;2023-07-20T02:10:48;6.33;;;3.90;;
18780;SDS011;9519;51.890;8.970;2023-07-20T02:15:50;6.97;;;3.73;;
18780;SDS011;9519;51.890;8.970;2023-07-20T02:20:54;6.97;;;3.70;;
18780;SDS011;9519;51.890;8.970;2023-07-20T02:25:56;9.20;;;4.00;;
18780;SDS011;9519;51.890;8.970;2023-07-20T02:30:58;8.23;;;3.63;;
18780;SDS011;9519;51.890;8.970;2023-07-20T02:36:02;7.07;;;4.03;;
18780;SDS011;9519;51.890;8.970;2023-07-20T02:41:04;7.93;;;4.60;;
18780;SDS011;9519;51.890;8.970;2023-07-20T02:46:06;8.10;;;4.90;;
18780;SDS011;9519;51.890;8.970;2023-07-20T02:51:10;6.87;;;5.07;;
18780;SDS011;9519;51.890;8.970;2023-07-20T02:56:12;8.90;;;5.50;;
18780;SDS011;9519;51.890;8.970;2023-07-20T03:01:14;8.83;;;7.30;;
18780;SDS011;9519;51.890;8.970;2023-07-20T03:06:18;14.43;;;11.20;;
18780;SDS011;9519;51.890;8.970;2023-07-20T03:11:20;15.30;;;13.77;;
18780;SDS011;9519;51.890;8.970;2023-07-20T03:16:23;18.63;;;16.10;;
18780;SDS011;9519;51.890;8.970;2023-07-20T03:21:28;24.23;;;21.40;;
18780;SDS011;9519;51.890;8.970;2023-07-20T03:26:30;21.67;;;18.55;;
18780;SDS011;9519;51.890;8.970;2023-07-20T03:31:32;21.35;;;18.75;;
18780;SDS011;9519;51.890;8.970;2023-07-20T03:36:36;25.30;;;21.20;;
18780;SDS011;9519;51.890;8.970;2023-07-20T03:41:38;29.17;;;22.25;;
18780;SDS011;9519;51.890;8.970;2023-07-20T03:46:40;31.52;;;24.33;;
18780;SDS011;9519;51.890;8.970;2023-07-20T03:51:43;26.63;;;22.20;;
18780;SDS011;9519;51.890;8.970;2023-07-20T03:56:45;36.70;;;28.33;;
18780;SDS011;9519;51.890;8.970;2023-07-20T04:01:47;35.73;;;28.73;;
18780;SDS011;9519;51.890;8.970;2023-07-20T04:06:51;44.37;;;33.13;;
18780;SDS011;9519;51.890;8.970;2023-07-20T04:11:53;44.10;;;33.93;;
18780;SDS011;9519;51.890;8.970;2023-07-20T04:16:55;47.27;;;35.40;;
18780;SDS011;9519;51.890;8.970;2023-07-20T04:22:01;45.10;;;34.17;;
18780;SDS011;9519;51.890;8.970;2023-07-20T04:27:04;48.37;;;36.17;;
18780;SDS011;9519;51.890;8.970;2023-07-20T04:32:07;43.50;;;32.70;;
18780;SDS011;9519;51.890;8.970;2023-07-20T04:37:10;47.17;;;32.73;;
18780;SDS011;9519;51.890;8.970;2023-07-20T04:42:12;16.03;;;9.70;;
18780;SDS011;9519;51.890;8.970;2023-07-20T04:47:15;12.30;;;7.63;;
18780;SDS011;9519;51.890;8.970;2023-07-20T04:52:18;10.77;;;6.63;;
18780;SDS011;9519;51.890;8.970;2023-07-20T04:57:20;12.50;;;5.70;;
18780;SDS011;9519;51.890;8.970;2023-07-20T05:02:25;13.90;;;7.13;;
18780;SDS011;9519;51.890;8.970;2023-07-20T05:07:28;9.43;;;6.10;;
18780;SDS011;9519;51.890;8.970;2023-07-20T05:12:31;9.93;;;6.43;;
18780;SDS011;9519;51.890;8.970;2023-07-20T05:17:33;11.57;;;7.40;;
18780;SDS011;9519;51.890;8.970;2023-07-20T05:22:36;11.50;;;7.50;;
18780;SDS011;9519;51.890;8.970;2023-07-20T05:27:40;10.00;;;7.37;;
18780;SDS011;9519;51.890;8.970;2023-07-20T05:32:42;12.37;;;7.67;;
18780;SDS011;9519;51.890;8.970;2023-07-20T05:37:47;12.73;;;8.87;;
18780;SDS011;9519;51.890;8.970;2023-07-20T05:42:49;12.47;;;9.40;;
18780;SDS011;9519;51.890;8.970;2023-07-20T05:47:53;13.80;;;9.23;;
18780;SDS011;9519;51.890;8.970;2023-07-20T05:52:57;10.87;;;8.93;;
18780;SDS011;9519;51.890;8.970;2023-07-20T05:57:59;12.13;;;9.10;;
18780;SDS011;9519;51.890;8.970;2023-07-20T06:03:01;10.63;;;8.73;;
18780;SDS011;9519;51.890;8.970;2023-07-20T06:08:05;10.90;;;7.90;;
18780;SDS011;9519;51.890;8.970;2023-07-20T06:13:07;12.73;;;8.63;;
18780;SDS011;9519;51.890;8.970;2023-07-20T06:18:10;12.93;;;9.07;;
18780;SDS011;9519;51.890;8.970;2023-07-20T06:23:13;12.27;;;10.13;;
18780;SDS011;9519;51.890;8.970;2023-07-20T06:28:15;10.53;;;9.13;;
18780;SDS011;9519;51.890;8.970;2023-07-20T06:33:18;13.20;;;9.70;;
18780;SDS011;9519;51.890;8.970;2023-07-20T06:38:22;17.03;;;10.30;;
18780;SDS011;9519;51.890;8.970;2023-07-20T06:43:24;8.77;;;6.80;;
18780;SDS011;9519;51.890;8.970;2023-07-20T06:48:26;8.53;;;6.03;;
18780;SDS011;9519;51.890;8.970;2023-07-20T06:53:31;8.07;;;5.10;;
18780;SDS011;9519;51.890;8.970;2023-07-20T06:58:33;8.10;;;5.33;;
18780;SDS011;9519;51.890;8.970;2023-07-20T07:03:35;7.53;;;5.23;;
18780;SDS011;9519;51.890;8.970;2023-07-20T07:08:39;5.33;;;4.27;;
18780;SDS011;9519;51.890;8.970;2023-07-20T07:13:43;5.97;;;3.50;;
18780;SDS011;9519;51.890;8.970;2023-07-20T07:18:47;4.43;;;2.47;;
18780;SDS011;9519;51.890;8.970;2023-07-20T07:23:53;7.20;;;2.33;;
18780;SDS011;9519;51.890;8.970;2023-07-20T07:28:59;4.03;;;2.63;;
18780;SDS011;9519;51.890;8.970;2023-07-20T07:34:01;3.37;;;2.23;;
18780;SDS011;9519;51.890;8.970;2023-07-20T07:39:06;7.27;;;1.97;;
18780;SDS011;9519;51.890;8.970;2023-07-20T07:44:09;3.47;;;1.90;;
18780;SDS011;9519;51.890;8.970;2023-07-20T07:49:14;4.87;;;1.90;;
18780;SDS011;9519;51.890;8.970;2023-07-20T07:54:18;3.75;;;1.75;;
18780;SDS011;9519;51.890;8.970;2023-07-20T07:59:20;3.63;;;1.75;;
18780;SDS011;9519;51.890;8.970;2023-07-20T08:04:22;3.83;;;1.50;;
18780;SDS011;9519;51.890;8.970;2023-07-20T08:09:26;4.53;;;1.27;;
18780;SDS011;9519;51.890;8.970;2023-07-20T08:14:28;4.32;;;1.30;;
18780;SDS011;9519;51.890;8.970;2023-07-20T08:19:30;4.10;;;1.45;;
18780;SDS011;9519;51.890;8.970;2023-07-20T08:24:34;3.78;;;1.38;;
18780;SDS011;9519;51.890;8.970;2023-07-20T08:29:36;2.97;;;1.30;;
18780;SDS011;9519;51.890;8.970;2023-07-20T08:34:39;1.95;;;0.93;;
18780;SDS011;9519;51.890;8.970;2023-07-20T08:39:44;1.87;;;1.13;;
18780;SDS011;9519;51.890;8.970;2023-07-20T08:44:46;3.15;;;1.15;;
18780;SDS011;9519;51.890;8.970;2023-07-20T08:49:51;2.00;;;1.17;;
18780;SDS011;9519;51.890;8.970;2023-07-20T08:54:57;2.22;;;1.08;;
18780;SDS011;9519;51.890;8.970;2023-07-20T09:00:03;2.05;;;1.00;;
18780;SDS011;9519;51.890;8.970;2023-07-20T09:05:10;2.05;;;0.70;;
18780;SDS011;9519;51.890;8.970;2023-07-20T09:10:15;1.25;;;0.55;;
18780;SDS011;9519;51.890;8.970;2023-07-20T09:15:18;2.45;;;0.90;;
18780;SDS011;9519;51.890;8.970;2023-07-20T09:20:21;2.47;;;0.80;;
18780;SDS011;9519;51.890;8.970;2023-07-20T09:25:25;1.52;;;0.70;;
18780;SDS011;9519;51.890;8.970;2023-07-20T09:30:29;1.08;;;0.75;;
18780;SDS011;9519;51.890;8.970;2023-07-20T09:35:31;3.25;;;0.90;;
18780;SDS011;9519;51.890;8.970;2023-07-20T09:40:38;4.72;;;1.05;;
18780;SDS011;9519;51.890;8.970;2023-07-20T09:45:41;2.65;;;0.70;;
18780;SDS011;9519;51.890;8.970;2023-07-20T09:50:48;1.40;;;0.60;;
18780;SDS011;9519;51.890;8.970;2023-07-20T09:55:53;1.85;;;0.68;;
18780;SDS011;9519;51.890;8.970;2023-07-20T10:00:56;4.32;;;0.70;;
18780;SDS011;9519;51.890;8.970;2023-07-20T10:06:05;1.95;;;0.50;;
18780;SDS011;9519;51.890;8.970;2023-07-20T10:11:13;1.20;;;0.60;;
18780;SDS011;9519;51.890;8.970;2023-07-20T10:16:20;2.40;;;0.73;;
18780;SDS011;9519;51.890;8.970;2023-07-20T10:21:29;1.58;;;0.50;;
18780;SDS011;9519;51.890;8.970;2023-07-20T10:26:33;2.00;;;0.88;;
18780;SDS011;9519;51.890;8.970;2023-07-20T10:31:35;1.70;;;0.70;;
18780;SDS011;9519;51.890;8.970;2023-07-20T10:36:43;3.20;;;0.68;;
18780;SDS011;9519;51.890;8.970;2023-07-20T10:41:50;2.13;;;0.85;;
18780;SDS011;9519;51.890;8.970;2023-07-20T10:47:01;1.38;;;0.60;;
18780;SDS011;9519;51.890;8.970;2023-07-20T10:52:09;2.05;;;0.73;;
18780;SDS011;9519;51.890;8.970;2023-07-20T10:57:23;2.10;;;0.70;;
18780;SDS011;9519;51.890;8.970;2023-07-20T11:02:29;1.92;;;0.85;;
18780;SDS011;9519;51.890;8.970;2023-07-20T11:07:44;2.45;;;0.70;;
18780;SDS011;9519;51.890;8.970;2023-07-20T11:18:25;3.08;;;0.70;;
18780;SDS011;9519;51.890;8.970;2023-07-20T11:23:27;2.38;;;0.52;;
18780;SDS011;9519;51.890;8.970;2023-07-20T11:28:35;1.33;;;0.60;;
18780;SDS011;9519;51.890;8.970;2023-07-20T11:33:37;0.85;;;0.50;;
18780;SDS011;9519;51.890;8.970;2023-07-20T11:38:41;1.05;;;0.50;;
18780;SDS011;9519;51.890;8.970;2023-07-20T11:43:45;2.20;;;0.60;;
18780;SDS011;9519;51.890;8.970;2023-07-20T11:48:48;2.15;;;0.65;;
18780;SDS011;9519;51.890;8.970;2023-07-20T11:53:57;2.35;;;0.65;;
18780;SDS011;9519;51.890;8.970;2023-07-20T11:59:03;2.92;;;0.70;;
18780;SDS011;9519;51.890;8.970;2023-07-20T12:04:10;1.60;;;0.68;;
18780;SDS011;9519;51.890;8.970;2023-07-20T12:09:14;2.53;;;0.50;;
18780;SDS011;9519;51.890;8.970;2023-07-20T12:14:24;4.10;;;0.80;;
18780;SDS011;9519;51.890;8.970;2023-07-20T12:19:27;0.80;;;0.50;;
18780;SDS011;9519;51.890;8.970;2023-07-20T12:24:29;1.08;;;0.57;;
18780;SDS011;9519;51.890;8.970;2023-07-20T12:29:36;3.85;;;0.70;;
18780;SDS011;9519;51.890;8.970;2023-07-20T12:34:38;2.08;;;0.60;;
18780;SDS011;9519;51.890;8.970;2023-07-20T12:39:40;1.02;;;0.50;;
18780;SDS011;9519;51.890;8.970;2023-07-20T12:44:46;0.80;;;0.52;;
18780;SDS011;9519;51.890;8.970;2023-07-20T12:49:50;2.13;;;0.70;;
18780;SDS011;9519;51.890;8.970;2023-07-20T12:54:52;2.97;;;0.68;;
18780;SDS011;9519;51.890;8.970;2023-07-20T12:59:56;1.45;;;0.73;;
18780;SDS011;9519;51.890;8.970;2023-07-20T13:05:04;2.10;;;0.68;;
18780;SDS011;9519;51.890;8.970;2023-07-20T13:10:07;2.83;;;0.93;;
18780;SDS011;9519;51.890;8.970;2023-07-20T13:15:12;2.20;;;1.08;;
18780;SDS011;9519;51.890;8.970;2023-07-20T13:20:15;0.93;;;0.73;;
18780;SDS011;9519;51.890;8.970;2023-07-20T13:25:18;2.42;;;1.15;;
18780;SDS011;9519;51.890;8.970;2023-07-20T13:30:22;2.45;;;0.95;;
18780;SDS011;9519;51.890;8.970;2023-07-20T13:35:24;1.75;;;1.02;;
18780;SDS011;9519;51.890;8.970;2023-07-20T13:40:26;3.20;;;1.13;;
18780;SDS011;9519;51.890;8.970;2023-07-20T13:45:29;2.75;;;1.00;;
18780;SDS011;9519;51.890;8.970;2023-07-20T13:50:31;2.17;;;1.10;;
18780;SDS011;9519;51.890;8.970;2023-07-20T13:55:34;2.53;;;1.10;;
18780;SDS011;9519;51.890;8.970;2023-07-20T14:00:38;3.22;;;1.08;;
18780;SDS011;9519;51.890;8.970;2023-07-20T14:05:41;1.30;;;1.00;;
18780;SDS011;9519;51.890;8.970;2023-07-20T14:10:43;3.97;;;1.00;;
18780;SDS011;9519;51.890;8.970;2023-07-20T14:15:47;1.63;;;0.90;;
18780;SDS011;9519;51.890;8.970;2023-07-20T14:20:50;1.70;;;1.00;;
18780;SDS011;9519;51.890;8.970;2023-07-20T14:25:52;1.25;;;1.00;;
18780;SDS011;9519;51.890;8.970;2023-07-20T14:30:56;2.08;;;1.00;;
18780;SDS011;9519;51.890;8.970;2023-07-20T14:35:58;1.73;;;0.93;;
18780;SDS011;9519;51.890;8.970;2023-07-20T14:41:01;2.00;;;0.80;;
18780;SDS011;9519;51.890;8.970;2023-07-20T14:46:05;1.33;;;0.73;;
18780;SDS011;9519;51.890;8.970;2023-07-20T14:51:07;0.95;;;0.60;;
18780;SDS011;9519;51.890;8.970;2023-07-20T14:56:09;1.08;;;0.50;;
18780;SDS011;9519;51.890;8.970;2023-07-20T15:01:12;2.38;;;0.68;;
18780;SDS011;9519;51.890;8.970;2023-07-20T15:06:14;3.13;;;0.50;;
18780;SDS011;9519;51.890;8.970;2023-07-20T15:11:16;1.25;;;0.47;;
18780;SDS011;9519;51.890;8.970;2023-07-20T15:16:20;1.80;;;0.30;;
18780;SDS011;9519;51.890;8.970;2023-07-20T15:21:22;2.17;;;0.60;;
18780;SDS011;9519;51.890;8.970;2023-07-20T15:26:25;1.63;;;0.45;;
18780;SDS011;9519;51.890;8.970;2023-07-20T15:31:29;2.08;;;0.47;;
18780;SDS011;9519;51.890;8.970;2023-07-20T15:36:31;2.17;;;0.47;;
18780;SDS011;9519;51.890;8.970;2023-07-20T15:41:33;0.57;;;0.30;;
18780;SDS011;9519;51.890;8.970;2023-07-20T15:46:47;2.72;;;0.80;;
18780;SDS011;9519;51.890;8.970;2023-07-20T15:51:50;2.83;;;0.57;;
18780;SDS011;9519;51.890;8.970;2023-07-20T15:56:52;2.30;;;0.65;;
18780;SDS011;9519;51.890;8.970;2023-07-20T16:01:56;1.58;;;0.60;;
18780;SDS011;9519;51.890;8.970;2023-07-20T16:06:58;2.03;;;0.60;;
18780;SDS011;9519;51.890;8.970;2023-07-20T16:12:00;5.72;;;3.05;;
18780;SDS011;9519;51.890;8.970;2023-07-20T16:17:04;4.03;;;0.65;;
18780;SDS011;9519;51.890;8.970;2023-07-20T16:22:06;1.98;;;0.75;;
18780;SDS011;9519;51.890;8.970;2023-07-20T16:27:11;1.98;;;0.85;;
18780;SDS011;9519;51.890;8.970;2023-07-20T16:32:15;1.88;;;0.63;;
18780;SDS011;9519;51.890;8.970;2023-07-20T16:37:17;3.90;;;0.70;;
18780;SDS011;9519;51.890;8.970;2023-07-20T16:42:19;1.65;;;0.50;;
18780;SDS011;9519;51.890;8.970;2023-07-20T16:47:23;1.45;;;0.63;;
18780;SDS011;9519;51.890;8.970;2023-07-20T16:52:25;1.23;;;0.40;;
18780;SDS011;9519;51.890;8.970;2023-07-20T16:57:28;4.45;;;0.60;;
18780;SDS011;9519;51.890;8.970;2023-07-20T17:02:32;2.78;;;0.55;;
18780;SDS011;9519;51.890;8.970;2023-07-20T17:07:34;0.90;;;0.40;;
18780;SDS011;9519;51.890;8.970;2023-07-20T17:12:37;1.02;;;0.30;;
18780;SDS011;9519;51.890;8.970;2023-07-20T17:17:45;1.30;;;0.50;;
18780;SDS011;9519;51.890;8.970;2023-07-20T17:22:50;8.10;;;3.60;;
18780;SDS011;9519;51.890;8.970;2023-07-20T17:27:53;3.20;;;0.57;;
18780;SDS011;9519;51.890;8.970;2023-07-20T17:32:58;1.58;;;0.30;;
18780;SDS011;9519;51.890;8.970;2023-07-20T17:38:00;2.30;;;0.45;;
18780;SDS011;9519;51.890;8.970;2023-07-20T17:43:02;3.08;;;0.70;;
18780;SDS011;9519;51.890;8.970;2023-07-20T17:48:08;2.08;;;0.70;;
18780;SDS011;9519;51.890;8.970;2023-07-20T17:53:10;4.90;;;0.90;;
18780;SDS011;9519;51.890;8.970;2023-07-20T17:58:13;1.48;;;0.40;;
18780;SDS011;9519;51.890;8.970;2023-07-20T18:03:16;2.80;;;0.50;;
18780;SDS011;9519;51.890;8.970;2023-07-20T18:08:18;3.97;;;0.52;;
18780;SDS011;9519;51.890;8.970;2023-07-20T18:13:21;1.48;;;0.57;;
18780;SDS011;9519;51.890;8.970;2023-07-20T18:18:24;2.40;;;0.65;;
18780;SDS011;9519;51.890;8.970;2023-07-20T18:23:27;1.73;;;0.60;;
18780;SDS011;9519;51.890;8.970;2023-07-20T18:28:29;4.00;;;1.23;;
18780;SDS011;9519;51.890;8.970;2023-07-20T18:33:33;3.03;;;0.60;;
18780;SDS011;9519;51.890;8.970;2023-07-20T18:38:35;4.28;;;1.38;;
18780;SDS011;9519;51.890;8.970;2023-07-20T18:43:37;1.58;;;0.50;;
18780;SDS011;9519;51.890;8.970;2023-07-20T18:48:41;5.68;;;0.90;;
18780;SDS011;9519;51.890;8.970;2023-07-20T18:53:43;0.90;;;0.60;;
18780;SDS011;9519;51.890;8.970;2023-07-20T18:58:45;0.95;;;0.50;;
18780;SDS011;9519;51.890;8.970;2023-07-20T19:03:49;3.03;;;1.08;;
18780;SDS011;9519;51.890;8.970;2023-07-20T19:08:51;6.10;;;2.80;;
18780;SDS011;9519;51.890;8.970;2023-07-20T19:13:54;4.10;;;1.42;;
18780;SDS011;9519;51.890;8.970;2023-07-20T19:18:58;4.47;;;1.23;;
18780;SDS011;9519;51.890;8.970;2023-07-20T19:24:00;5.22;;;1.02;;
18780;SDS011;9519;51.890;8.970;2023-07-20T19:29:04;4.35;;;0.85;;
18780;SDS011;9519;51.890;8.970;2023-07-20T19:34:07;2.10;;;0.80;;
18780;SDS011;9519;51.890;8.970;2023-07-20T19:39:13;1.83;;;0.77;;
18780;SDS011;9519;51.890;8.970;2023-07-20T19:44:16;1.95;;;0.70;;
18780;SDS011;9519;51.890;8.970;2023-07-20T19:49:23;1.58;;;0.90;;
18780;SDS011;9519;51.890;8.970;2023-07-20T19:54:26;3.97;;;0.90;;
18780;SDS011;9519;51.890;8.970;2023-07-20T19:59:28;1.83;;;0.65;;
18780;SDS011;9519;51.890;8.970;2023-07-20T20:04:31;2.08;;;0.80;;
18780;SDS011;9519;51.890;8.970;2023-07-20T20:09:33;1.65;;;0.70;;
18780;SDS011;9519;51.890;8.970;2023-07-20T20:14:35;2.60;;;0.80;;
18780;SDS011;9519;51.890;8.970;2023-07-20T20:19:39;4.55;;;1.70;;
18780;SDS011;9519;51.890;8.970;2023-07-20T20:24:41;3.40;;;1.30;;
18780;SDS011;9519;51.890;8.970;2023-07-20T20:29:43;2.42;;;1.05;;
18780;SDS011;9519;51.890;8.970;2023-07-20T20:34:47;4.18;;;0.90;;
18780;SDS011;9519;51.890;8.970;2023-07-20T20:39:49;3.92;;;1.80;;
18780;SDS011;9519;51.890;8.970;2023-07-20T20:44:52;2.83;;;1.80;;
18780;SDS011;9519;51.890;8.970;2023-07-20T20:50:00;5.25;;;2.47;;
18780;SDS011;9519;51.890;8.970;2023-07-20T20:55:02;5.75;;;2.28;;
18780;SDS011;9519;51.890;8.970;2023-07-20T21:00:05;3.78;;;1.55;;
18780;SDS011;9519;51.890;8.970;2023-07-20T21:05:11;3.83;;;1.60;;
18780;SDS011;9519;51.890;8.970;2023-07-20T21:10:13;3.15;;;0.93;;
18780;SDS011;9519;51.890;8.970;2023-07-20T21:15:16;2.72;;;0.80;;
18780;SDS011;9519;51.890;8.970;2023-07-20T21:20:19;2.35;;;1.10;;
18780;SDS011;9519;51.890;8.970;2023-07-20T21:25:21;4.95;;;1.33;;
18780;SDS011;9519;51.890;8.970;2023-07-20T21:30:23;2.70;;;1.05;;
18780;SDS011;9519;51.890;8.970;2023-07-20T21:35:28;3.67;;;1.20;;
18780;SDS011;9519;51.890;8.970;2023-07-20T21:40:32;3.45;;;2.00;;
18780;SDS011;9519;51.890;8.970;2023-07-20T21:45:37;3.65;;;1.27;;
18780;SDS011;9519;51.890;8.970;2023-07-20T21:50:47;4.10;;;1.38;;
18780;SDS011;9519;51.890;8.970;2023-07-20T21:55:49;3.58;;;1.27;;
18780;SDS011;9519;51.890;8.970;2023-07-20T22:00:51;3.53;;;1.50;;
18780;SDS011;9519;51.890;8.970;2023-07-20T22:05:57;5.05;;;1.30;;
18780;SDS011;9519;51.890;8.970;2023-07-20T22:11:04;5.03;;;1.40;;
18780;SDS011;9519;51.890;8.970;2023-07-20T22:16:06;5.18;;;1.52;;
18780;SDS011;9519;51.890;8.970;2023-07-20T22:21:10;6.53;;;1.40;;
18780;SDS011;9519;51.890;8.970;2023-07-20T22:26:12;3.95;;;1.30;;
18780;SDS011;9519;51.890;8.970;2023-07-20T22:31:14;5.80;;;1.83;;
18780;SDS011;9519;51.890;8.970;2023-07-20T22:36:18;4.60;;;1.60;;
18780;SDS011;9519;51.890;8.970;2023-07-20T22:41:20;6.20;;;1.58;;
18780;SDS011;9519;51.890;8.970;2023-07-20T22:46:22;7.63;;;1.52;;
18780;SDS011;9519;51.890;8.970;2023-07-20T22:51:26;7.93;;;1.50;;
18780;SDS011;9519;51.890;8.970;2023-07-20T22:56:28;2.47;;;1.30;;
18780;SDS011;9519;51.890;8.970;2023-07-20T23:01:31;3.03;;;1.38;;
18780;SDS011;9519;51.890;8.970;2023-07-20T23:06:34;3.35;;;1.30;;
18780;SDS011;9519;51.890;8.970;2023-07-20T23:11:36;4.30;;;1.45;;
18780;SDS011;9519;51.890;8.970;2023-07-20T23:16:38;5.00;;;1.65;;
18780;SDS011;9519;51.890;8.970;2023-07-20T23:21:42;2.87;;;1.73;;
18780;SDS011;9519;51.890;8.970;2023-07-20T23:26:45;3.28;;;1.75;;
18780;SDS011;9519;51.890;8.970;2023-07-20T23:31:47;2.90;;;1.63;;
18780;SDS011;9519;51.890;8.970;2023-07-20T23:36:50;3.90;;;1.70;;
18780;SDS011;9519;51.890;8.970;2023-07-20T23:41:53;2.67;;;1.60;;
18780;SDS011;9519;51.890;8.970;2023-07-20T23:46:56;3.72;;;1.40;;
18780;SDS011;9519;51.890;8.970;2023-07-20T23:51:59;4.28;;;1.70;;
18780;SDS011;9519;51.890;8.970;2023-07-20T23:57:01;4.57;;;1.65;;
